sensor_id;sensor_type;location;lat;lon;timestamp;P1;durP1;ratioP1;P2;durP2;ratioP2
6638;SDS011;3355;52.882;8.430;2022-11-11T00:00:13;5.40;;;2.70;;
6638;SDS011;3355;52.882;8.430;2022-11-11T00:02:41;5.90;;;2.67;;
6638;SDS011;3355;52.882;8.430;2022-11-11T00:05:08;4.23;;;2.33;;
6638;SDS011;3355;52.882;8.430;2022-11-11T00:07:35;5.80;;;2.37;;
6638;SDS011;3355;52.882;8.430;2022-11-11T00:10:02;6.50;;;2.77;;
6638;SDS011;3355;52.882;8.430;2022-11-11T00:12:32;4.93;;;2.80;;
6638;SDS011;3355;52.882;8.430;2022-11-11T00:14:59;5.33;;;2.67;;
6638;SDS011;3355;52.882;8.430;2022-11-11T00:17:25;8.57;;;3.63;;
6638;SDS011;3355;52.882;8.430;2022-11-11T00:20:10;7.77;;;2.63;;
6638;SDS011;3355;52.882;8.430;2022-11-11T00:22:54;4.67;;;2.43;;
6638;SDS011;3355;52.882;8.430;2022-11-11T00:25:39;6.00;;;2.60;;
6638;SDS011;3355;52.882;8.430;2022-11-11T00:28:07;7.03;;;2.77;;
6638;SDS011;3355;52.882;8.430;2022-11-11T00:30:34;4.30;;;2.30;;
6638;SDS011;3355;52.882;8.430;2022-11-11T00:33:02;6.00;;;3.00;;
6638;SDS011;3355;52.882;8.430;2022-11-11T00:35:28;5.80;;;2.57;;
6638;SDS011;3355;52.882;8.430;2022-11-11T00:38:14;5.53;;;2.60;;
6638;SDS011;3355;52.882;8.430;2022-11-11T00:41:01;8.63;;;3.00;;
6638;SDS011;3355;52.882;8.430;2022-11-11T00:43:29;9.30;;;2.50;;
6638;SDS011;3355;52.882;8.430;2022-11-11T00:45:57;4.70;;;2.30;;
6638;SDS011;3355;52.882;8.430;2022-11-11T00:48:37;7.50;;;3.30;;
6638;SDS011;3355;52.882;8.430;2022-11-11T00:51:22;6.30;;;3.00;;
6638;SDS011;3355;52.882;8.430;2022-11-11T00:53:49;4.13;;;2.47;;
6638;SDS011;3355;52.882;8.430;2022-11-11T00:56:15;8.57;;;3.00;;
6638;SDS011;3355;52.882;8.430;2022-11-11T00:58:44;6.63;;;3.10;;
6638;SDS011;3355;52.882;8.430;2022-11-11T01:01:11;8.40;;;3.10;;
6638;SDS011;3355;52.882;8.430;2022-11-11T01:03:38;5.27;;;2.73;;
6638;SDS011;3355;52.882;8.430;2022-11-11T01:06:05;6.13;;;2.40;;
6638;SDS011;3355;52.882;8.430;2022-11-11T01:08:32;5.10;;;2.40;;
6638;SDS011;3355;52.882;8.430;2022-11-11T01:10:59;5.33;;;2.97;;
6638;SDS011;3355;52.882;8.430;2022-11-11T01:13:27;6.13;;;3.30;;
6638;SDS011;3355;52.882;8.430;2022-11-11T01:15:58;6.27;;;2.60;;
6638;SDS011;3355;52.882;8.430;2022-11-11T01:18:27;6.10;;;2.83;;
6638;SDS011;3355;52.882;8.430;2022-11-11T01:20:58;7.07;;;3.10;;
6638;SDS011;3355;52.882;8.430;2022-11-11T01:23:26;6.80;;;2.70;;
6638;SDS011;3355;52.882;8.430;2022-11-11T01:25:54;5.57;;;3.47;;
6638;SDS011;3355;52.882;8.430;2022-11-11T01:28:21;4.63;;;3.03;;
6638;SDS011;3355;52.882;8.430;2022-11-11T01:30:48;5.63;;;3.60;;
6638;SDS011;3355;52.882;8.430;2022-11-11T01:33:17;9.20;;;3.13;;
6638;SDS011;3355;52.882;8.430;2022-11-11T01:35:44;5.27;;;3.30;;
6638;SDS011;3355;52.882;8.430;2022-11-11T01:38:11;7.07;;;3.33;;
6638;SDS011;3355;52.882;8.430;2022-11-11T01:40:41;7.00;;;3.63;;
6638;SDS011;3355;52.882;8.430;2022-11-11T01:43:16;8.77;;;3.73;;
6638;SDS011;3355;52.882;8.430;2022-11-11T01:45:47;6.83;;;4.00;;
6638;SDS011;3355;52.882;8.430;2022-11-11T01:48:22;5.40;;;3.30;;
6638;SDS011;3355;52.882;8.430;2022-11-11T01:51:11;6.00;;;3.40;;
6638;SDS011;3355;52.882;8.430;2022-11-11T01:53:43;5.43;;;3.27;;
6638;SDS011;3355;52.882;8.430;2022-11-11T01:56:11;6.10;;;2.57;;
6638;SDS011;3355;52.882;8.430;2022-11-11T01:58:39;7.17;;;3.53;;
6638;SDS011;3355;52.882;8.430;2022-11-11T02:01:06;7.20;;;3.07;;
6638;SDS011;3355;52.882;8.430;2022-11-11T02:03:37;10.33;;;3.67;;
6638;SDS011;3355;52.882;8.430;2022-11-11T02:06:05;5.70;;;2.97;;
6638;SDS011;3355;52.882;8.430;2022-11-11T02:08:32;8.50;;;3.60;;
6638;SDS011;3355;52.882;8.430;2022-11-11T02:11:01;6.77;;;3.03;;
6638;SDS011;3355;52.882;8.430;2022-11-11T02:13:29;5.77;;;3.70;;
6638;SDS011;3355;52.882;8.430;2022-11-11T02:16:14;6.17;;;3.30;;
6638;SDS011;3355;52.882;8.430;2022-11-11T02:18:42;8.07;;;4.23;;
6638;SDS011;3355;52.882;8.430;2022-11-11T02:21:09;5.17;;;2.83;;
6638;SDS011;3355;52.882;8.430;2022-11-11T02:23:40;6.50;;;3.07;;
6638;SDS011;3355;52.882;8.430;2022-11-11T02:26:11;9.67;;;3.13;;
6638;SDS011;3355;52.882;8.430;2022-11-11T02:28:43;8.33;;;3.57;;
6638;SDS011;3355;52.882;8.430;2022-11-11T02:31:11;6.83;;;3.63;;
6638;SDS011;3355;52.882;8.430;2022-11-11T02:33:40;8.40;;;3.67;;
6638;SDS011;3355;52.882;8.430;2022-11-11T02:36:08;6.10;;;2.90;;
6638;SDS011;3355;52.882;8.430;2022-11-11T02:38:40;10.30;;;3.47;;
6638;SDS011;3355;52.882;8.430;2022-11-11T02:41:07;6.67;;;3.17;;
6638;SDS011;3355;52.882;8.430;2022-11-11T02:43:54;5.27;;;3.40;;
6638;SDS011;3355;52.882;8.430;2022-11-11T02:46:21;8.07;;;4.10;;
6638;SDS011;3355;52.882;8.430;2022-11-11T02:48:49;8.97;;;3.43;;
6638;SDS011;3355;52.882;8.430;2022-11-11T02:51:17;8.93;;;4.07;;
6638;SDS011;3355;52.882;8.430;2022-11-11T02:53:45;4.27;;;2.77;;
6638;SDS011;3355;52.882;8.430;2022-11-11T02:56:12;6.63;;;3.57;;
6638;SDS011;3355;52.882;8.430;2022-11-11T02:59:04;12.73;;;4.33;;
6638;SDS011;3355;52.882;8.430;2022-11-11T03:01:31;4.93;;;3.00;;
6638;SDS011;3355;52.882;8.430;2022-11-11T03:03:59;4.70;;;3.13;;
6638;SDS011;3355;52.882;8.430;2022-11-11T03:06:27;5.90;;;3.83;;
6638;SDS011;3355;52.882;8.430;2022-11-11T03:08:56;7.40;;;3.40;;
6638;SDS011;3355;52.882;8.430;2022-11-11T03:11:23;5.47;;;3.53;;
6638;SDS011;3355;52.882;8.430;2022-11-11T03:13:53;9.43;;;4.47;;
6638;SDS011;3355;52.882;8.430;2022-11-11T03:16:23;6.33;;;3.60;;
6638;SDS011;3355;52.882;8.430;2022-11-11T03:19:07;8.33;;;4.20;;
6638;SDS011;3355;52.882;8.430;2022-11-11T03:21:34;8.37;;;4.03;;
6638;SDS011;3355;52.882;8.430;2022-11-11T03:24:01;9.70;;;4.40;;
6638;SDS011;3355;52.882;8.430;2022-11-11T03:26:28;7.03;;;4.30;;
6638;SDS011;3355;52.882;8.430;2022-11-11T03:28:55;6.47;;;3.90;;
6638;SDS011;3355;52.882;8.430;2022-11-11T03:31:24;8.43;;;4.50;;
6638;SDS011;3355;52.882;8.430;2022-11-11T03:33:51;6.20;;;4.27;;
6638;SDS011;3355;52.882;8.430;2022-11-11T03:36:17;6.53;;;3.90;;
6638;SDS011;3355;52.882;8.430;2022-11-11T03:38:44;5.90;;;3.50;;
6638;SDS011;3355;52.882;8.430;2022-11-11T03:41:09;8.80;;;3.97;;
6638;SDS011;3355;52.882;8.430;2022-11-11T03:43:36;10.57;;;4.00;;
6638;SDS011;3355;52.882;8.430;2022-11-11T03:46:04;6.23;;;3.43;;
6638;SDS011;3355;52.882;8.430;2022-11-11T03:48:32;5.77;;;4.23;;
6638;SDS011;3355;52.882;8.430;2022-11-11T03:50:59;6.50;;;4.00;;
6638;SDS011;3355;52.882;8.430;2022-11-11T03:53:27;6.20;;;4.20;;
6638;SDS011;3355;52.882;8.430;2022-11-11T03:55:54;7.67;;;4.27;;
6638;SDS011;3355;52.882;8.430;2022-11-11T03:58:20;7.20;;;4.07;;
6638;SDS011;3355;52.882;8.430;2022-11-11T04:00:47;7.43;;;4.10;;
6638;SDS011;3355;52.882;8.430;2022-11-11T04:03:14;6.17;;;4.00;;
6638;SDS011;3355;52.882;8.430;2022-11-11T04:06:01;7.87;;;4.40;;
6638;SDS011;3355;52.882;8.430;2022-11-11T04:08:42;7.80;;;4.50;;
6638;SDS011;3355;52.882;8.430;2022-11-11T04:11:27;9.17;;;4.00;;
6638;SDS011;3355;52.882;8.430;2022-11-11T04:13:55;6.07;;;4.03;;
6638;SDS011;3355;52.882;8.430;2022-11-11T04:16:42;7.00;;;4.53;;
6638;SDS011;3355;52.882;8.430;2022-11-11T04:19:08;6.10;;;4.00;;
6638;SDS011;3355;52.882;8.430;2022-11-11T04:22:02;7.33;;;4.93;;
6638;SDS011;3355;52.882;8.430;2022-11-11T04:24:29;9.17;;;4.50;;
6638;SDS011;3355;52.882;8.430;2022-11-11T04:27:15;5.97;;;3.80;;
6638;SDS011;3355;52.882;8.430;2022-11-11T04:29:42;6.00;;;4.70;;
6638;SDS011;3355;52.882;8.430;2022-11-11T04:32:09;11.17;;;6.17;;
6638;SDS011;3355;52.882;8.430;2022-11-11T04:34:55;8.70;;;4.83;;
6638;SDS011;3355;52.882;8.430;2022-11-11T04:37:24;7.83;;;4.77;;
6638;SDS011;3355;52.882;8.430;2022-11-11T04:39:51;7.53;;;4.73;;
6638;SDS011;3355;52.882;8.430;2022-11-11T04:42:35;8.63;;;4.90;;
6638;SDS011;3355;52.882;8.430;2022-11-11T04:45:03;10.93;;;4.37;;
6638;SDS011;3355;52.882;8.430;2022-11-11T04:47:53;10.27;;;4.67;;
6638;SDS011;3355;52.882;8.430;2022-11-11T04:50:22;7.67;;;4.23;;
6638;SDS011;3355;52.882;8.430;2022-11-11T04:52:51;12.67;;;5.27;;
6638;SDS011;3355;52.882;8.430;2022-11-11T04:55:19;8.10;;;5.80;;
6638;SDS011;3355;52.882;8.430;2022-11-11T04:58:03;12.07;;;5.57;;
6638;SDS011;3355;52.882;8.430;2022-11-11T05:00:31;8.43;;;6.17;;
6638;SDS011;3355;52.882;8.430;2022-11-11T05:02:59;9.53;;;5.27;;
6638;SDS011;3355;52.882;8.430;2022-11-11T05:05:42;11.57;;;5.50;;
6638;SDS011;3355;52.882;8.430;2022-11-11T05:08:29;8.63;;;5.03;;
6638;SDS011;3355;52.882;8.430;2022-11-11T05:11:14;8.83;;;5.47;;
6638;SDS011;3355;52.882;8.430;2022-11-11T05:13:42;7.50;;;5.57;;
6638;SDS011;3355;52.882;8.430;2022-11-11T05:16:26;10.10;;;5.47;;
6638;SDS011;3355;52.882;8.430;2022-11-11T05:19:13;6.80;;;5.23;;
6638;SDS011;3355;52.882;8.430;2022-11-11T05:22:10;7.20;;;5.40;;
6638;SDS011;3355;52.882;8.430;2022-11-11T05:24:42;9.60;;;5.80;;
6638;SDS011;3355;52.882;8.430;2022-11-11T05:27:27;11.20;;;5.60;;
6638;SDS011;3355;52.882;8.430;2022-11-11T05:29:54;9.97;;;6.70;;
6638;SDS011;3355;52.882;8.430;2022-11-11T05:32:22;11.77;;;6.20;;
6638;SDS011;3355;52.882;8.430;2022-11-11T05:34:50;15.13;;;7.67;;
6638;SDS011;3355;52.882;8.430;2022-11-11T05:37:17;13.30;;;6.57;;
6638;SDS011;3355;52.882;8.430;2022-11-11T05:39:46;12.43;;;6.93;;
6638;SDS011;3355;52.882;8.430;2022-11-11T05:42:14;10.53;;;6.97;;
6638;SDS011;3355;52.882;8.430;2022-11-11T05:44:42;12.50;;;6.90;;
6638;SDS011;3355;52.882;8.430;2022-11-11T05:47:10;10.57;;;6.37;;
6638;SDS011;3355;52.882;8.430;2022-11-11T05:49:38;11.73;;;7.30;;
6638;SDS011;3355;52.882;8.430;2022-11-11T05:52:06;9.53;;;7.00;;
6638;SDS011;3355;52.882;8.430;2022-11-11T05:54:35;11.57;;;6.40;;
6638;SDS011;3355;52.882;8.430;2022-11-11T05:57:04;11.60;;;7.10;;
6638;SDS011;3355;52.882;8.430;2022-11-11T05:59:32;12.30;;;6.90;;
6638;SDS011;3355;52.882;8.430;2022-11-11T06:01:59;8.33;;;6.17;;
6638;SDS011;3355;52.882;8.430;2022-11-11T06:04:27;10.17;;;6.43;;
6638;SDS011;3355;52.882;8.430;2022-11-11T06:06:56;12.37;;;7.40;;
6638;SDS011;3355;52.882;8.430;2022-11-11T06:09:23;11.30;;;7.13;;
6638;SDS011;3355;52.882;8.430;2022-11-11T06:11:51;10.07;;;7.00;;
6638;SDS011;3355;52.882;8.430;2022-11-11T06:14:20;12.53;;;7.70;;
6638;SDS011;3355;52.882;8.430;2022-11-11T06:16:48;12.90;;;7.43;;
6638;SDS011;3355;52.882;8.430;2022-11-11T06:19:16;15.57;;;7.70;;
6638;SDS011;3355;52.882;8.430;2022-11-11T06:21:44;13.17;;;7.50;;
6638;SDS011;3355;52.882;8.430;2022-11-11T06:24:25;11.70;;;7.77;;
6638;SDS011;3355;52.882;8.430;2022-11-11T06:26:53;12.77;;;7.80;;
6638;SDS011;3355;52.882;8.430;2022-11-11T06:29:22;17.33;;;6.73;;
6638;SDS011;3355;52.882;8.430;2022-11-11T06:31:50;18.13;;;7.40;;
6638;SDS011;3355;52.882;8.430;2022-11-11T06:34:19;11.33;;;7.67;;
6638;SDS011;3355;52.882;8.430;2022-11-11T06:36:46;11.30;;;8.33;;
6638;SDS011;3355;52.882;8.430;2022-11-11T06:39:14;10.70;;;7.27;;
6638;SDS011;3355;52.882;8.430;2022-11-11T06:41:42;12.97;;;8.10;;
6638;SDS011;3355;52.882;8.430;2022-11-11T06:44:10;12.20;;;8.17;;
6638;SDS011;3355;52.882;8.430;2022-11-11T06:46:40;9.90;;;7.97;;
6638;SDS011;3355;52.882;8.430;2022-11-11T06:49:08;12.90;;;7.90;;
6638;SDS011;3355;52.882;8.430;2022-11-11T06:51:36;15.40;;;8.67;;
6638;SDS011;3355;52.882;8.430;2022-11-11T06:54:04;16.17;;;8.70;;
6638;SDS011;3355;52.882;8.430;2022-11-11T06:56:32;13.47;;;8.00;;
6638;SDS011;3355;52.882;8.430;2022-11-11T06:59:00;13.30;;;8.40;;
6638;SDS011;3355;52.882;8.430;2022-11-11T07:01:28;14.00;;;8.53;;
6638;SDS011;3355;52.882;8.430;2022-11-11T07:03:57;15.00;;;9.73;;
6638;SDS011;3355;52.882;8.430;2022-11-11T07:06:25;11.37;;;8.73;;
6638;SDS011;3355;52.882;8.430;2022-11-11T07:08:53;13.83;;;7.70;;
6638;SDS011;3355;52.882;8.430;2022-11-11T07:11:21;12.53;;;9.10;;
6638;SDS011;3355;52.882;8.430;2022-11-11T07:13:48;13.10;;;8.17;;
6638;SDS011;3355;52.882;8.430;2022-11-11T07:16:17;11.53;;;8.13;;
6638;SDS011;3355;52.882;8.430;2022-11-11T07:18:44;11.73;;;8.60;;
6638;SDS011;3355;52.882;8.430;2022-11-11T07:21:15;16.37;;;9.00;;
6638;SDS011;3355;52.882;8.430;2022-11-11T07:23:43;12.70;;;8.80;;
6638;SDS011;3355;52.882;8.430;2022-11-11T07:26:11;11.27;;;7.80;;
6638;SDS011;3355;52.882;8.430;2022-11-11T07:28:38;11.60;;;8.70;;
6638;SDS011;3355;52.882;8.430;2022-11-11T07:31:06;12.70;;;7.83;;
6638;SDS011;3355;52.882;8.430;2022-11-11T07:33:34;12.87;;;9.10;;
6638;SDS011;3355;52.882;8.430;2022-11-11T07:36:02;12.17;;;8.93;;
6638;SDS011;3355;52.882;8.430;2022-11-11T07:38:31;11.63;;;8.13;;
6638;SDS011;3355;52.882;8.430;2022-11-11T07:40:57;12.17;;;7.90;;
6638;SDS011;3355;52.882;8.430;2022-11-11T07:43:24;14.33;;;8.30;;
6638;SDS011;3355;52.882;8.430;2022-11-11T07:45:51;14.03;;;8.23;;
6638;SDS011;3355;52.882;8.430;2022-11-11T07:48:24;14.70;;;8.67;;
6638;SDS011;3355;52.882;8.430;2022-11-11T07:50:51;14.07;;;8.93;;
6638;SDS011;3355;52.882;8.430;2022-11-11T07:53:18;13.27;;;9.03;;
6638;SDS011;3355;52.882;8.430;2022-11-11T07:55:46;15.40;;;9.03;;
6638;SDS011;3355;52.882;8.430;2022-11-11T07:58:13;11.80;;;8.47;;
6638;SDS011;3355;52.882;8.430;2022-11-11T08:00:40;12.53;;;8.50;;
6638;SDS011;3355;52.882;8.430;2022-11-11T08:03:06;11.90;;;8.10;;
6638;SDS011;3355;52.882;8.430;2022-11-11T08:05:33;11.87;;;8.13;;
6638;SDS011;3355;52.882;8.430;2022-11-11T08:08:14;12.60;;;8.17;;
6638;SDS011;3355;52.882;8.430;2022-11-11T08:10:40;12.67;;;9.90;;
6638;SDS011;3355;52.882;8.430;2022-11-11T08:13:11;12.80;;;8.13;;
6638;SDS011;3355;52.882;8.430;2022-11-11T08:15:55;13.87;;;8.80;;
6638;SDS011;3355;52.882;8.430;2022-11-11T08:18:22;14.17;;;8.13;;
6638;SDS011;3355;52.882;8.430;2022-11-11T08:20:48;9.40;;;7.87;;
6638;SDS011;3355;52.882;8.430;2022-11-11T08:23:22;12.73;;;8.23;;
6638;SDS011;3355;52.882;8.430;2022-11-11T08:25:56;11.13;;;7.80;;
6638;SDS011;3355;52.882;8.430;2022-11-11T08:28:25;14.23;;;9.40;;
6638;SDS011;3355;52.882;8.430;2022-11-11T08:31:00;11.90;;;8.40;;
6638;SDS011;3355;52.882;8.430;2022-11-11T08:33:32;9.43;;;7.00;;
6638;SDS011;3355;52.882;8.430;2022-11-11T08:36:00;9.63;;;7.67;;
6638;SDS011;3355;52.882;8.430;2022-11-11T08:38:27;10.67;;;7.57;;
6638;SDS011;3355;52.882;8.430;2022-11-11T08:40:54;10.07;;;8.20;;
6638;SDS011;3355;52.882;8.430;2022-11-11T08:43:21;11.70;;;8.37;;
6638;SDS011;3355;52.882;8.430;2022-11-11T08:45:49;11.17;;;8.00;;
6638;SDS011;3355;52.882;8.430;2022-11-11T08:48:20;12.23;;;7.90;;
6638;SDS011;3355;52.882;8.430;2022-11-11T08:50:50;9.87;;;7.33;;
6638;SDS011;3355;52.882;8.430;2022-11-11T08:53:17;10.00;;;6.97;;
6638;SDS011;3355;52.882;8.430;2022-11-11T08:55:52;8.93;;;7.07;;
6638;SDS011;3355;52.882;8.430;2022-11-11T08:58:19;10.53;;;7.23;;
6638;SDS011;3355;52.882;8.430;2022-11-11T09:00:46;11.90;;;7.97;;
6638;SDS011;3355;52.882;8.430;2022-11-11T09:03:18;9.10;;;7.67;;
6638;SDS011;3355;52.882;8.430;2022-11-11T09:05:44;12.07;;;7.07;;
6638;SDS011;3355;52.882;8.430;2022-11-11T09:08:11;9.90;;;7.10;;
6638;SDS011;3355;52.882;8.430;2022-11-11T09:10:38;9.20;;;7.13;;
6638;SDS011;3355;52.882;8.430;2022-11-11T09:13:05;10.60;;;6.20;;
6638;SDS011;3355;52.882;8.430;2022-11-11T09:15:32;9.60;;;6.70;;
6638;SDS011;3355;52.882;8.430;2022-11-11T09:18:02;8.33;;;6.67;;
6638;SDS011;3355;52.882;8.430;2022-11-11T09:20:30;10.37;;;6.87;;
6638;SDS011;3355;52.882;8.430;2022-11-11T09:22:56;10.50;;;6.87;;
6638;SDS011;3355;52.882;8.430;2022-11-11T09:25:24;8.10;;;5.40;;
6638;SDS011;3355;52.882;8.430;2022-11-11T09:27:53;8.70;;;6.93;;
6638;SDS011;3355;52.882;8.430;2022-11-11T09:30:21;9.50;;;6.30;;
6638;SDS011;3355;52.882;8.430;2022-11-11T09:32:48;11.40;;;7.13;;
6638;SDS011;3355;52.882;8.430;2022-11-11T09:35:15;9.27;;;6.37;;
6638;SDS011;3355;52.882;8.430;2022-11-11T09:37:43;8.20;;;6.90;;
6638;SDS011;3355;52.882;8.430;2022-11-11T09:40:18;8.90;;;6.50;;
6638;SDS011;3355;52.882;8.430;2022-11-11T09:42:48;10.60;;;6.07;;
6638;SDS011;3355;52.882;8.430;2022-11-11T09:45:24;13.07;;;6.67;;
6638;SDS011;3355;52.882;8.430;2022-11-11T09:47:57;8.13;;;5.80;;
6638;SDS011;3355;52.882;8.430;2022-11-11T09:50:25;8.73;;;6.40;;
6638;SDS011;3355;52.882;8.430;2022-11-11T09:52:56;12.20;;;6.90;;
6638;SDS011;3355;52.882;8.430;2022-11-11T09:55:26;10.80;;;6.50;;
6638;SDS011;3355;52.882;8.430;2022-11-11T09:57:56;7.93;;;5.67;;
6638;SDS011;3355;52.882;8.430;2022-11-11T10:00:27;9.20;;;6.17;;
6638;SDS011;3355;52.882;8.430;2022-11-11T10:02:56;6.60;;;5.20;;
6638;SDS011;3355;52.882;8.430;2022-11-11T10:05:48;7.83;;;5.60;;
6638;SDS011;3355;52.882;8.430;2022-11-11T10:08:19;9.67;;;5.60;;
6638;SDS011;3355;52.882;8.430;2022-11-11T10:11:11;9.67;;;5.67;;
6638;SDS011;3355;52.882;8.430;2022-11-11T10:13:48;8.47;;;4.90;;
6638;SDS011;3355;52.882;8.430;2022-11-11T10:16:16;5.97;;;5.00;;
6638;SDS011;3355;52.882;8.430;2022-11-11T10:18:52;9.33;;;4.43;;
6638;SDS011;3355;52.882;8.430;2022-11-11T10:21:31;10.50;;;5.70;;
6638;SDS011;3355;52.882;8.430;2022-11-11T10:24:20;6.93;;;4.60;;
6638;SDS011;3355;52.882;8.430;2022-11-11T10:26:54;7.60;;;4.37;;
6638;SDS011;3355;52.882;8.430;2022-11-11T10:29:38;6.97;;;5.23;;
6638;SDS011;3355;52.882;8.430;2022-11-11T10:32:13;6.60;;;4.43;;
6638;SDS011;3355;52.882;8.430;2022-11-11T10:34:45;7.13;;;5.10;;
6638;SDS011;3355;52.882;8.430;2022-11-11T10:37:24;8.40;;;5.33;;
6638;SDS011;3355;52.882;8.430;2022-11-11T10:40:01;6.87;;;4.37;;
6638;SDS011;3355;52.882;8.430;2022-11-11T10:42:32;6.67;;;4.43;;
6638;SDS011;3355;52.882;8.430;2022-11-11T10:45:27;6.10;;;4.97;;
6638;SDS011;3355;52.882;8.430;2022-11-11T10:47:57;8.20;;;5.77;;
6638;SDS011;3355;52.882;8.430;2022-11-11T10:50:27;7.87;;;4.50;;
6638;SDS011;3355;52.882;8.430;2022-11-11T10:53:02;8.03;;;4.47;;
6638;SDS011;3355;52.882;8.430;2022-11-11T10:55:50;7.13;;;4.40;;
6638;SDS011;3355;52.882;8.430;2022-11-11T10:58:42;5.90;;;4.03;;
6638;SDS011;3355;52.882;8.430;2022-11-11T11:01:15;6.70;;;4.17;;
6638;SDS011;3355;52.882;8.430;2022-11-11T11:03:49;7.93;;;4.40;;
6638;SDS011;3355;52.882;8.430;2022-11-11T11:06:27;6.03;;;3.57;;
6638;SDS011;3355;52.882;8.430;2022-11-11T11:09:02;5.50;;;3.70;;
6638;SDS011;3355;52.882;8.430;2022-11-11T11:11:40;5.37;;;3.87;;
6638;SDS011;3355;52.882;8.430;2022-11-11T11:14:41;5.53;;;3.80;;
6638;SDS011;3355;52.882;8.430;2022-11-11T11:17:11;8.50;;;4.70;;
6638;SDS011;3355;52.882;8.430;2022-11-11T11:19:43;7.20;;;4.30;;
6638;SDS011;3355;52.882;8.430;2022-11-11T11:22:10;5.43;;;3.83;;
6638;SDS011;3355;52.882;8.430;2022-11-11T11:24:39;5.83;;;3.73;;
6638;SDS011;3355;52.882;8.430;2022-11-11T11:27:08;6.10;;;3.70;;
6638;SDS011;3355;52.882;8.430;2022-11-11T11:29:35;8.73;;;3.87;;
6638;SDS011;3355;52.882;8.430;2022-11-11T11:32:14;7.47;;;4.27;;
6638;SDS011;3355;52.882;8.430;2022-11-11T11:34:42;7.23;;;4.90;;
6638;SDS011;3355;52.882;8.430;2022-11-11T11:37:10;5.27;;;3.90;;
6638;SDS011;3355;52.882;8.430;2022-11-11T11:39:38;4.93;;;3.30;;
6638;SDS011;3355;52.882;8.430;2022-11-11T11:42:05;5.40;;;3.37;;
6638;SDS011;3355;52.882;8.430;2022-11-11T11:44:33;8.80;;;3.40;;
6638;SDS011;3355;52.882;8.430;2022-11-11T11:47:04;6.53;;;3.90;;
6638;SDS011;3355;52.882;8.430;2022-11-11T11:49:58;5.80;;;3.17;;
6638;SDS011;3355;52.882;8.430;2022-11-11T11:52:36;5.20;;;3.30;;
6638;SDS011;3355;52.882;8.430;2022-11-11T11:55:05;6.80;;;3.30;;
6638;SDS011;3355;52.882;8.430;2022-11-11T11:57:40;6.20;;;3.30;;
6638;SDS011;3355;52.882;8.430;2022-11-11T12:00:15;7.30;;;3.53;;
6638;SDS011;3355;52.882;8.430;2022-11-11T12:05:46;6.53;;;3.53;;
6638;SDS011;3355;52.882;8.430;2022-11-11T12:08:18;6.00;;;3.40;;
6638;SDS011;3355;52.882;8.430;2022-11-11T12:10:53;8.97;;;3.53;;
6638;SDS011;3355;52.882;8.430;2022-11-11T12:13:28;5.60;;;3.57;;
6638;SDS011;3355;52.882;8.430;2022-11-11T12:16:03;3.97;;;3.00;;
6638;SDS011;3355;52.882;8.430;2022-11-11T12:18:43;5.43;;;3.40;;
6638;SDS011;3355;52.882;8.430;2022-11-11T12:21:19;5.40;;;3.57;;
6638;SDS011;3355;52.882;8.430;2022-11-11T12:23:50;5.37;;;3.33;;
6638;SDS011;3355;52.882;8.430;2022-11-11T12:26:23;6.90;;;3.17;;
6638;SDS011;3355;52.882;8.430;2022-11-11T12:28:57;4.63;;;3.80;;
6638;SDS011;3355;52.882;8.430;2022-11-11T12:31:37;6.03;;;3.43;;
6638;SDS011;3355;52.882;8.430;2022-11-11T12:34:15;6.60;;;3.40;;
6638;SDS011;3355;52.882;8.430;2022-11-11T12:36:50;5.90;;;3.30;;
6638;SDS011;3355;52.882;8.430;2022-11-11T12:39:27;4.93;;;3.37;;
6638;SDS011;3355;52.882;8.430;2022-11-11T12:42:09;5.40;;;3.33;;
6638;SDS011;3355;52.882;8.430;2022-11-11T12:44:40;5.63;;;3.77;;
6638;SDS011;3355;52.882;8.430;2022-11-11T12:47:20;4.80;;;3.30;;
6638;SDS011;3355;52.882;8.430;2022-11-11T12:49:54;7.80;;;3.50;;
6638;SDS011;3355;52.882;8.430;2022-11-11T12:52:27;5.00;;;3.40;;
6638;SDS011;3355;52.882;8.430;2022-11-11T12:55:04;4.90;;;3.10;;
6638;SDS011;3355;52.882;8.430;2022-11-11T12:57:41;5.00;;;3.50;;
6638;SDS011;3355;52.882;8.430;2022-11-11T13:00:17;6.73;;;3.07;;
6638;SDS011;3355;52.882;8.430;2022-11-11T13:02:57;3.87;;;2.70;;
6638;SDS011;3355;52.882;8.430;2022-11-11T13:05:33;4.97;;;3.30;;
6638;SDS011;3355;52.882;8.430;2022-11-11T13:08:14;5.70;;;3.20;;
6638;SDS011;3355;52.882;8.430;2022-11-11T13:10:47;5.10;;;3.40;;
6638;SDS011;3355;52.882;8.430;2022-11-11T13:16:08;6.93;;;3.10;;
6638;SDS011;3355;52.882;8.430;2022-11-11T13:18:37;5.40;;;3.33;;
6638;SDS011;3355;52.882;8.430;2022-11-11T13:21:09;4.50;;;2.70;;
6638;SDS011;3355;52.882;8.430;2022-11-11T13:23:37;5.77;;;3.30;;
6638;SDS011;3355;52.882;8.430;2022-11-11T13:26:26;5.80;;;3.30;;
6638;SDS011;3355;52.882;8.430;2022-11-11T13:28:59;5.30;;;2.93;;
6638;SDS011;3355;52.882;8.430;2022-11-11T13:31:43;5.40;;;2.87;;
6638;SDS011;3355;52.882;8.430;2022-11-11T13:34:12;10.60;;;3.70;;
6638;SDS011;3355;52.882;8.430;2022-11-11T13:36:50;5.80;;;3.30;;
6638;SDS011;3355;52.882;8.430;2022-11-11T13:39:21;3.90;;;2.50;;
6638;SDS011;3355;52.882;8.430;2022-11-11T13:42:06;6.03;;;3.50;;
6638;SDS011;3355;52.882;8.430;2022-11-11T13:44:35;5.90;;;3.17;;
6638;SDS011;3355;52.882;8.430;2022-11-11T13:47:06;6.20;;;3.13;;
6638;SDS011;3355;52.882;8.430;2022-11-11T13:49:40;6.93;;;3.13;;
6638;SDS011;3355;52.882;8.430;2022-11-11T13:52:18;5.83;;;3.00;;
6638;SDS011;3355;52.882;8.430;2022-11-11T13:55:00;6.57;;;2.97;;
6638;SDS011;3355;52.882;8.430;2022-11-11T13:58:01;4.87;;;2.87;;
6638;SDS011;3355;52.882;8.430;2022-11-11T14:01:03;5.03;;;3.20;;
6638;SDS011;3355;52.882;8.430;2022-11-11T14:06:36;7.10;;;4.50;;
6638;SDS011;3355;52.882;8.430;2022-11-11T14:15:32;4.70;;;3.40;;
6638;SDS011;3355;52.882;8.430;2022-11-11T14:18:00;4.80;;;3.00;;
6638;SDS011;3355;52.882;8.430;2022-11-11T14:20:34;6.10;;;2.90;;
6638;SDS011;3355;52.882;8.430;2022-11-11T14:23:21;7.93;;;3.00;;
6638;SDS011;3355;52.882;8.430;2022-11-11T14:26:19;6.47;;;3.77;;
6638;SDS011;3355;52.882;8.430;2022-11-11T14:32:13;5.90;;;2.93;;
6638;SDS011;3355;52.882;8.430;2022-11-11T14:35:19;6.03;;;2.90;;
6638;SDS011;3355;52.882;8.430;2022-11-11T14:47:31;10.13;;;3.53;;
6638;SDS011;3355;52.882;8.430;2022-11-11T14:50:02;4.23;;;3.40;;
6638;SDS011;3355;52.882;8.430;2022-11-11T14:52:38;5.83;;;3.10;;
6638;SDS011;3355;52.882;8.430;2022-11-11T14:55:10;10.93;;;2.90;;
6638;SDS011;3355;52.882;8.430;2022-11-11T14:57:54;6.80;;;3.50;;
6638;SDS011;3355;52.882;8.430;2022-11-11T15:00:30;4.60;;;2.90;;
6638;SDS011;3355;52.882;8.430;2022-11-11T15:04:06;5.20;;;2.90;;
6638;SDS011;3355;52.882;8.430;2022-11-11T15:06:38;5.43;;;3.47;;
6638;SDS011;3355;52.882;8.430;2022-11-11T15:12:30;7.70;;;3.30;;
6638;SDS011;3355;52.882;8.430;2022-11-11T15:19:09;5.50;;;3.07;;
6638;SDS011;3355;52.882;8.430;2022-11-11T15:21:42;10.57;;;3.60;;
6638;SDS011;3355;52.882;8.430;2022-11-11T15:25:21;6.60;;;3.27;;
6638;SDS011;3355;52.882;8.430;2022-11-11T15:27:25;7.67;;;3.70;;
6638;SDS011;3355;52.882;8.430;2022-11-11T15:30:10;7.60;;;3.00;;
6638;SDS011;3355;52.882;8.430;2022-11-11T15:35:32;5.70;;;3.13;;
6638;SDS011;3355;52.882;8.430;2022-11-11T15:38:01;4.20;;;2.80;;
6638;SDS011;3355;52.882;8.430;2022-11-11T15:40:31;5.57;;;3.27;;
6638;SDS011;3355;52.882;8.430;2022-11-11T15:43:10;5.00;;;2.63;;
6638;SDS011;3355;52.882;8.430;2022-11-11T15:46:20;6.57;;;2.87;;
6638;SDS011;3355;52.882;8.430;2022-11-11T15:49:02;5.17;;;3.03;;
6638;SDS011;3355;52.882;8.430;2022-11-11T15:51:44;5.80;;;3.70;;
6638;SDS011;3355;52.882;8.430;2022-11-11T15:54:20;6.00;;;3.10;;
6638;SDS011;3355;52.882;8.430;2022-11-11T15:56:53;11.37;;;4.77;;
6638;SDS011;3355;52.882;8.430;2022-11-11T15:59:38;8.80;;;4.40;;
6638;SDS011;3355;52.882;8.430;2022-11-11T16:02:06;5.93;;;3.80;;
6638;SDS011;3355;52.882;8.430;2022-11-11T16:04:49;7.30;;;4.80;;
6638;SDS011;3355;52.882;8.430;2022-11-11T16:07:24;6.73;;;4.10;;
6638;SDS011;3355;52.882;8.430;2022-11-11T16:10:12;5.47;;;3.43;;
6638;SDS011;3355;52.882;8.430;2022-11-11T16:12:55;7.23;;;4.10;;
6638;SDS011;3355;52.882;8.430;2022-11-11T16:15:24;8.03;;;3.00;;
6638;SDS011;3355;52.882;8.430;2022-11-11T16:17:57;8.13;;;3.87;;
6638;SDS011;3355;52.882;8.430;2022-11-11T16:20:27;5.30;;;3.03;;
6638;SDS011;3355;52.882;8.430;2022-11-11T16:23:12;10.00;;;3.50;;
6638;SDS011;3355;52.882;8.430;2022-11-11T16:25:45;7.03;;;2.83;;